Time;durP1;ratioP1;P1;durP2;ratioP2;P2;SDS_P1;SDS_P2;PMS_P1;PMS_P2;Temp;Humidity;BMP_temperature;BMP_pressure;BME280_temperature;BME280_humidity;BME280_pressure;Samples;Min_cycle;Max_cycle;Signal;HPM_P1;HPM_P2
2023/02/08 00:01:19;;;;;;;0.28;0.28;;;;;;;1.17;80.35;103374.16;4950720;29;20077;-68
2023/02/08 00:03:44;;;;;;;0.80;0.80;;;;;;;1.26;80.23;103377.31;4949042;28;20399;-66
2023/02/08 00:06:10;;;;;;;0.35;0.35;;;;;;;1.28;81.02;103383.22;4951049;28;20121;-68
2023/02/08 00:08:36;;;;;;;0.30;0.30;;;;;;;1.31;80.09;103378.25;4951406;28;20171;-65
2023/02/08 00:11:02;;;;;;;0.38;0.38;;;;;;;1.28;80.09;103380.56;4952255;28;20440;-64
2023/02/08 00:13:28;;;;;;;0.20;0.20;;;;;;;1.30;80.16;103381.94;4950453;28;20046;-64
2023/02/08 00:15:54;;;;;;;0.40;0.40;;;;;;;1.27;80.21;103365.66;4950943;29;20519;-64
2023/02/08 00:18:21;;;;;;;0.25;0.25;;;;;;;1.18;79.88;103365.16;4951579;28;20031;-64
2023/02/08 00:20:47;;;;;;;0.40;0.40;;;;;;;1.23;80.59;103360.00;4944569;28;20031;-67
2023/02/08 00:23:13;;;;;;;0.20;0.20;;;;;;;1.11;80.96;103360.97;4951758;28;20130;-64
2023/02/08 00:25:40;;;;;;;0.30;0.30;;;;;;;0.92;81.24;103360.19;4949946;29;20488;-64
2023/02/08 00:28:06;;;;;;;0.88;0.88;;;;;;;1.10;80.97;103365.47;4950415;28;20062;-64
2023/02/08 00:30:31;;;;;;;0.20;0.20;;;;;;;1.05;81.04;103360.03;4956779;28;20043;-65
2023/02/08 00:32:58;;;;;;;0.98;0.63;;;;;;;1.02;80.59;103352.53;4951657;28;20058;-64
2023/02/08 00:35:23;;;;;;;0.30;0.30;;;;;;;1.08;81.02;103359.59;4942118;28;20036;-66
2023/02/08 00:37:49;;;;;;;0.30;0.30;;;;;;;1.07;80.92;103368.56;4951312;28;20399;-64
2023/02/08 00:40:16;;;;;;;0.35;0.35;;;;;;;1.06;80.70;103359.00;4965452;28;20039;-64
2023/02/08 00:42:42;;;;;;;0.35;0.35;;;;;;;1.02;80.78;103352.53;4950824;28;20039;-65
2023/02/08 00:45:08;;;;;;;0.20;0.20;;;;;;;1.10;80.80;103349.56;4949538;28;20039;-64
2023/02/08 00:47:33;;;;;;;0.20;0.20;;;;;;;1.05;80.97;103346.75;4950530;28;20400;-64
2023/02/08 00:49:59;;;;;;;0.40;0.40;;;;;;;1.00;80.87;103343.16;4965299;28;20456;-65
2023/02/08 00:52:24;;;;;;;0.57;0.50;;;;;;;1.07;80.75;103344.69;4945449;28;20114;-64
2023/02/08 00:54:50;;;;;;;0.20;0.20;;;;;;;1.07;81.05;103334.09;4950817;28;20035;-64
2023/02/08 00:57:15;;;;;;;1.70;1.02;;;;;;;1.05;80.65;103330.84;4950973;28;20046;-63
2023/02/08 00:59:41;;;;;;;0.30;0.30;;;;;;;1.06;80.85;103332.47;4946549;28;20046;-65
2023/02/08 01:02:08;;;;;;;0.20;0.20;;;;;;;1.13;80.39;103325.22;4949762;29;20039;-64
2023/02/08 01:04:33;;;;;;;0.85;0.85;;;;;;;1.12;79.94;103336.88;4955235;28;20122;-64
2023/02/08 01:06:59;;;;;;;0.32;0.32;;;;;;;1.04;80.05;103334.53;4963836;28;20122;-65
2023/02/08 01:09:24;;;;;;;0.20;0.20;;;;;;;0.99;80.92;103338.91;4950485;28;20050;-67
2023/02/08 01:11:50;;;;;;;0.20;0.20;;;;;;;0.78;80.78;103337.50;4952191;28;20023;-65
2023/02/08 01:14:16;;;;;;;0.30;0.30;;;;;;;0.75;81.87;103337.97;4957042;28;20133;-64
2023/02/08 01:16:41;;;;;;;0.30;0.30;;;;;;;0.85;81.13;103339.06;4954308;28;20039;-65
2023/02/08 01:19:07;;;;;;;0.60;0.60;;;;;;;0.90;80.98;103327.78;4954240;28;20130;-66
2023/02/08 01:21:38;;;;;;;0.30;0.30;;;;;;;0.88;81.27;103335.16;4954652;28;20043;-64
2023/02/08 01:24:05;;;;;;;0.30;0.30;;;;;;;0.94;81.13;103334.25;4948111;28;20027;-64
2023/02/08 01:26:31;;;;;;;0.20;0.20;;;;;;;0.99;81.14;103329.09;4954173;28;20043;-64
2023/02/08 01:28:58;;;;;;;0.38;0.38;;;;;;;1.00;80.61;103335.22;4957707;28;20039;-64
2023/02/08 01:31:29;;;;;;;0.40;0.40;;;;;;;0.79;80.96;103345.25;4949235;29;20043;-65
2023/02/08 01:33:56;;;;;;;0.52;0.52;;;;;;;0.81;81.45;103332.56;4954210;28;20031;-65
2023/02/08 01:36:22;;;;;;;0.32;0.32;;;;;;;0.70;81.60;103330.69;4953610;28;20063;-64
2023/02/08 01:38:47;;;;;;;0.40;0.40;;;;;;;0.62;82.00;103327.53;4969888;28;20058;-64
2023/02/08 01:41:20;;;;;;;0.47;0.47;;;;;;;0.66;82.00;103326.03;4962928;28;20534;-64
2023/02/08 01:44:11;;;;;;;0.30;0.30;;;;;;;0.64;81.66;103325.47;4960564;28;20039;-64
2023/02/08 01:46:38;;;;;;;;;;;;;;;0.59;82.82;103327.97;4948873;28;20035;-65
2023/02/08 01:49:17;;;;;;;0.20;0.20;;;;;;;0.65;82.29;103330.53;4956105;28;19949;-65
2023/02/08 01:51:51;;;;;;;0.43;0.43;;;;;;;0.54;82.07;103327.81;4953057;28;20519;-66
2023/02/08 01:54:20;;;;;;;0.32;0.32;;;;;;;0.39;82.80;103327.38;4962326;28;20026;-67
2023/02/08 01:56:47;;;;;;;0.70;0.70;;;;;;;0.27;82.81;103339.75;4957026;28;20038;-66
2023/02/08 01:59:48;;;;;;;0.50;0.50;;;;;;;0.47;82.99;103332.38;4953722;28;20118;-66
2023/02/08 02:02:18;;;;;;;0.40;0.40;;;;;;;0.31;83.37;103336.41;4930718;29;20035;-66
2023/02/08 02:04:47;;;;;;;0.52;0.30;;;;;;;0.49;83.21;103347.03;4931323;29;20191;-66
2023/02/08 02:07:13;;;;;;;0.30;0.30;;;;;;;0.48;82.94;103344.59;4932011;29;20048;-65
2023/02/08 02:09:45;;;;;;;0.40;0.40;;;;;;;0.46;83.02;103342.19;4932284;29;20040;-66
2023/02/08 02:12:12;;;;;;;0.40;0.40;;;;;;;0.36;82.79;103336.59;4913657;29;20041;-66
2023/02/08 02:14:38;;;;;;;0.30;0.30;;;;;;;0.26;83.67;103330.16;4916011;29;20390;-67
2023/02/08 02:17:04;;;;;;;1.75;0.75;;;;;;;0.35;83.65;103328.84;4937830;29;20043;-66
2023/02/08 02:19:30;;;;;;;2.28;0.80;;;;;;;0.42;83.22;103335.72;4932232;29;20047;-67
2023/02/08 02:22:32;;;;;;;0.30;0.30;;;;;;;0.47;83.19;103340.31;4933267;29;20045;-68
2023/02/08 02:25:05;;;;;;;0.30;0.30;;;;;;;0.39;83.37;103335.31;4932359;29;20090;-67
2023/02/08 02:27:49;;;;;;;0.35;0.35;;;;;;;0.41;83.52;103333.25;4941853;29;20055;-66
2023/02/08 02:31:07;;;;;;;0.77;0.77;;;;;;;0.17;83.87;103318.22;4917125;29;20039;-67
2023/02/08 02:34:03;;;;;;;0.20;0.20;;;;;;;0.21;83.61;103316.78;4874756;29;20391;-66
2023/02/08 02:36:41;;;;;;;0.25;0.25;;;;;;;0.12;83.83;103318.09;4937397;29;20047;-66
2023/02/08 02:39:28;;;;;;;0.68;0.68;;;;;;;-0.01;84.46;103324.31;4943257;28;20043;-67
2023/02/08 02:44:55;;;;;;;;;;;;;;;0.00;84.50;103325.94;4939345;29;20099;-65
2023/02/08 02:47:36;;;;;;;0.30;0.30;;;;;;;-0.25;84.33;103320.63;4935297;29;19922;-65
2023/02/08 02:50:32;;;;;;;0.30;0.30;;;;;;;-0.17;84.80;103314.25;4935667;29;20043;-65
2023/02/08 02:53:16;;;;;;;0.20;0.20;;;;;;;-0.18;84.45;103320.59;4924125;29;20027;-65
2023/02/08 02:55:48;;;;;;;0.30;0.30;;;;;;;-0.21;84.58;103324.47;4931308;29;20512;-65
2023/02/08 02:58:15;;;;;;;0.20;0.20;;;;;;;-0.36;84.70;103316.06;4926034;29;20504;-65
2023/02/08 03:00:41;;;;;;;0.20;0.20;;;;;;;-0.27;85.09;103320.03;4926687;29;20031;-64
2023/02/08 03:03:20;;;;;;;0.95;0.85;;;;;;;-0.27;84.96;103330.63;4948416;29;20511;-65
2023/02/08 03:05:46;;;;;;;0.30;0.30;;;;;;;-0.36;85.46;103328.47;4966071;28;20077;-67
2023/02/08 03:08:54;;;;;;;0.50;0.50;;;;;;;-0.44;85.25;103321.63;4935038;29;20106;-66
2023/02/08 03:11:44;;;;;;;0.40;0.40;;;;;;;-0.49;86.01;103325.94;4933493;29;20039;-66
2023/02/08 03:14:15;;;;;;;0.57;0.57;;;;;;;-0.30;85.94;103317.84;4912173;29;20693;-68
2023/02/08 03:17:13;;;;;;;0.50;0.50;;;;;;;-0.42;85.31;103308.97;4926925;29;20052;-66
2023/02/08 03:19:48;;;;;;;0.45;0.45;;;;;;;-0.39;85.58;103310.41;4929344;29;20048;-66
2023/02/08 03:22:50;;;;;;;0.20;0.20;;;;;;;-0.29;85.04;103316.81;4913349;29;20098;-65
2023/02/08 03:25:26;;;;;;;0.50;0.50;;;;;;;-0.37;85.28;103319.72;4880501;29;20067;-66
2023/02/08 03:28:03;;;;;;;0.52;0.52;;;;;;;-0.29;85.37;103334.53;4913584;29;20047;-65
2023/02/08 03:30:48;;;;;;;0.55;0.55;;;;;;;-0.27;84.94;103338.56;4929024;29;20126;-66
2023/02/08 03:33:24;;;;;;;0.50;0.50;;;;;;;-0.21;85.27;103340.34;4908466;29;20791;-65
2023/02/08 03:35:56;;;;;;;0.50;0.50;;;;;;;-0.26;85.19;103347.34;4913175;29;20036;-65
2023/02/08 03:38:42;;;;;;;0.30;0.30;;;;;;;-0.45;85.52;103341.16;4924983;29;20550;-66
2023/02/08 03:41:14;;;;;;;0.20;0.20;;;;;;;-0.55;85.98;103353.25;4941160;29;20040;-66
2023/02/08 03:43:46;;;;;;;0.20;0.20;;;;;;;-0.49;86.34;103353.22;4926540;29;20754;-66
2023/02/08 03:46:26;;;;;;;1.95;0.50;;;;;;;-0.45;85.57;103351.75;4925589;29;20535;-65
2023/02/08 03:48:57;;;;;;;0.30;0.30;;;;;;;-0.58;85.59;103341.25;4924271;29;20817;-66
2023/02/08 03:51:25;;;;;;;0.30;0.30;;;;;;;-0.53;85.72;103351.19;4943732;28;20063;-70
2023/02/08 03:53:54;;;;;;;0.30;0.30;;;;;;;-0.54;85.80;103358.31;4958412;28;20065;-66
2023/02/08 03:56:29;;;;;;;0.77;0.77;;;;;;;-0.57;85.55;103344.69;4933268;29;20043;-67
2023/02/08 03:59:01;;;;;;;0.20;0.20;;;;;;;-0.47;85.59;103348.50;4926321;29;20064;-66
2023/02/08 04:01:35;;;;;;;0.80;0.57;;;;;;;-0.49;85.68;103349.75;4933476;29;20060;-66
2023/02/08 04:04:01;;;;;;;0.28;0.28;;;;;;;-0.49;85.51;103344.44;4946217;29;20027;-67
2023/02/08 04:06:27;;;;;;;0.22;0.22;;;;;;;-0.51;85.12;103347.31;4947916;29;20119;-66
2023/02/08 04:08:52;;;;;;;0.65;0.65;;;;;;;-0.34;85.28;103343.13;4933823;29;20059;-66
2023/02/08 04:11:18;;;;;;;0.30;0.30;;;;;;;-0.38;84.97;103343.75;4933428;29;20044;-68
2023/02/08 04:13:43;;;;;;;0.20;0.20;;;;;;;-0.47;85.37;103353.81;4933787;29;20039;-65
2023/02/08 04:16:12;;;;;;;0.30;0.30;;;;;;;-0.47;85.46;103345.03;4964352;28;20071;-66
2023/02/08 04:18:37;;;;;;;0.52;0.52;;;;;;;-0.41;84.86;103344.19;4933299;29;20524;-66
2023/02/08 04:21:04;;;;;;;0.30;0.30;;;;;;;-0.54;84.51;103349.59;4944173;29;20127;-65
2023/02/08 04:23:29;;;;;;;0.65;0.60;;;;;;;-0.51;85.27;103351.78;4931227;29;20043;-65
2023/02/08 04:25:55;;;;;;;0.20;0.20;;;;;;;-0.50;85.16;103340.16;4931551;29;20030;-66
2023/02/08 04:28:20;;;;;;;0.20;0.20;;;;;;;-0.60;84.94;103345.16;4948630;29;20036;-68
2023/02/08 04:30:46;;;;;;;0.73;0.73;;;;;;;-0.49;84.55;103349.75;4933537;29;20131;-66
2023/02/08 04:33:13;;;;;;;0.50;0.50;;;;;;;-0.53;84.71;103346.72;4933573;29;21613;-66
2023/02/08 04:35:40;;;;;;;0.30;0.30;;;;;;;-0.55;84.68;103351.41;4933632;29;20369;-67
2023/02/08 04:38:06;;;;;;;0.85;0.40;;;;;;;-0.54;85.27;103349.59;4932441;29;20099;-65
2023/02/08 04:40:32;;;;;;;0.50;0.50;;;;;;;-0.67;85.14;103337.25;4933081;29;20032;-66
2023/02/08 04:42:57;;;;;;;0.70;0.70;;;;;;;-0.67;84.93;103331.13;4928721;29;20047;-68
2023/02/08 04:45:24;;;;;;;0.30;0.30;;;;;;;-0.83;85.59;103332.44;4934104;29;20103;-68
2023/02/08 04:47:49;;;;;;;0.40;0.40;;;;;;;-0.91;85.95;103328.22;4952164;29;20167;-69
2023/02/08 04:50:15;;;;;;;0.60;0.60;;;;;;;-0.87;86.39;103336.53;4934789;29;20075;-66
2023/02/08 04:52:41;;;;;;;0.30;0.30;;;;;;;-0.84;85.90;103330.84;4966608;28;20027;-67
2023/02/08 04:55:07;;;;;;;0.30;0.30;;;;;;;-0.73;85.96;103338.09;4934200;29;20127;-67
2023/02/08 04:57:32;;;;;;;0.30;0.30;;;;;;;-0.74;85.97;103333.84;4950586;29;20035;-66
2023/02/08 04:59:58;;;;;;;0.50;0.50;;;;;;;-0.63;86.33;103338.44;4930473;29;21519;-67
2023/02/08 05:02:23;;;;;;;0.30;0.30;;;;;;;-0.57;85.08;103334.94;4940404;28;20420;-67
2023/02/08 05:04:48;;;;;;;0.30;0.30;;;;;;;-0.56;85.10;103333.91;4936703;28;20036;-67
2023/02/08 05:07:14;;;;;;;0.70;0.70;;;;;;;-0.59;85.05;103325.59;4950069;28;20397;-67
2023/02/08 05:09:39;;;;;;;0.65;0.65;;;;;;;-0.61;85.56;103323.16;4948989;28;20464;-67
2023/02/08 05:12:05;;;;;;;0.30;0.30;;;;;;;-0.64;85.05;103318.28;4919799;29;20032;-67
2023/02/08 05:14:30;;;;;;;1.48;0.68;;;;;;;-0.85;85.09;103317.84;4919414;29;20040;-67
2023/02/08 05:16:56;;;;;;;0.30;0.30;;;;;;;-0.79;85.61;103320.41;4965331;28;20043;-67
2023/02/08 05:19:21;;;;;;;0.40;0.40;;;;;;;-0.91;85.99;103311.56;4953529;28;20107;-67
2023/02/08 05:21:47;;;;;;;0.50;0.50;;;;;;;-0.89;85.65;103314.00;4946274;29;20032;-67
2023/02/08 05:24:12;;;;;;;0.40;0.40;;;;;;;-0.83;85.13;103313.94;4962094;28;20031;-67
2023/02/08 05:26:39;;;;;;;0.30;0.30;;;;;;;-0.79;85.25;103315.13;4934608;29;20043;-67
2023/02/08 05:29:04;;;;;;;0.50;0.50;;;;;;;-0.87;85.08;103312.72;4935014;29;20083;-67
2023/02/08 05:31:30;;;;;;;0.20;0.20;;;;;;;-0.84;85.08;103314.97;4934580;29;20169;-67
2023/02/08 05:33:55;;;;;;;0.57;0.57;;;;;;;-0.72;85.23;103321.22;4942179;29;20040;-67
2023/02/08 05:36:22;;;;;;;0.40;0.40;;;;;;;-0.73;84.61;103318.75;4948614;29;20039;-67
2023/02/08 05:38:48;;;;;;;0.30;0.30;;;;;;;-0.76;84.89;103317.38;4949628;29;20508;-67
2023/02/08 05:41:14;;;;;;;0.50;0.50;;;;;;;-0.81;84.77;103314.53;4934866;29;20039;-67
2023/02/08 05:43:40;;;;;;;0.40;0.40;;;;;;;-0.76;84.91;103321.84;4927267;29;20106;-67
2023/02/08 05:46:06;;;;;;;0.30;0.30;;;;;;;-0.82;84.58;103325.31;4948960;29;20126;-67
2023/02/08 05:48:32;;;;;;;0.30;0.30;;;;;;;-0.83;85.46;103326.38;4932544;29;20039;-67
2023/02/08 05:50:58;;;;;;;1.08;0.75;;;;;;;-0.87;84.66;103319.88;4928936;29;20049;-67
2023/02/08 05:53:24;;;;;;;0.43;0.43;;;;;;;-0.98;85.59;103316.88;4923041;29;20040;-67
2023/02/08 05:55:49;;;;;;;0.30;0.30;;;;;;;-0.85;85.17;103318.63;4962623;28;20103;-67
2023/02/08 05:58:16;;;;;;;0.30;0.30;;;;;;;-0.93;85.07;103309.09;4931301;29;20040;-67
2023/02/08 06:00:42;;;;;;;0.38;0.38;;;;;;;-0.75;85.16;103305.75;4920203;29;20035;-67
2023/02/08 06:03:08;;;;;;;0.40;0.40;;;;;;;-0.74;85.17;103317.16;4935212;29;20035;-68
2023/02/08 06:05:36;;;;;;;0.38;0.38;;;;;;;-0.69;84.74;103304.91;4942634;29;20036;-67
2023/02/08 06:08:01;;;;;;;0.52;0.52;;;;;;;-0.81;84.57;103305.81;4943201;28;20039;-67
2023/02/08 06:10:26;;;;;;;0.30;0.30;;;;;;;-1.14;85.19;103313.91;4927968;29;20542;-66
2023/02/08 06:12:52;;;;;;;0.30;0.30;;;;;;;-1.00;85.45;103324.22;4921097;29;20106;-67
2023/02/08 06:15:18;;;;;;;0.47;0.47;;;;;;;-1.16;85.30;103314.09;4946768;29;20725;-67
2023/02/08 06:17:43;;;;;;;0.30;0.30;;;;;;;-1.20;85.99;103314.75;4924665;29;20107;-66
2023/02/08 06:20:09;;;;;;;0.20;0.20;;;;;;;-1.08;85.50;103313.88;4920969;29;20083;-67
2023/02/08 06:22:34;;;;;;;0.30;0.30;;;;;;;-1.02;85.72;103317.50;4925837;29;20122;-67
2023/02/08 06:25:00;;;;;;;0.20;0.20;;;;;;;-0.96;85.34;103304.25;4940722;29;20038;-67
2023/02/08 06:27:25;;;;;;;0.40;0.40;;;;;;;-1.00;85.10;103316.28;4919109;29;20031;-67
2023/02/08 06:29:51;;;;;;;0.40;0.40;;;;;;;-1.04;85.55;103314.25;4939293;28;20398;-67
2023/02/08 06:32:16;;;;;;;0.50;0.50;;;;;;;-0.91;85.74;103322.94;4950744;28;20036;-69
2023/02/08 06:34:42;;;;;;;0.50;0.50;;;;;;;-0.84;85.22;103322.91;4937911;29;20879;-67
2023/02/08 06:37:07;;;;;;;0.30;0.30;;;;;;;-0.69;84.25;103326.06;4941984;28;20496;-67
2023/02/08 06:39:33;;;;;;;1.35;0.85;;;;;;;-0.64;84.26;103330.72;4956624;28;20044;-67
2023/02/08 06:41:58;;;;;;;0.55;0.55;;;;;;;-0.65;84.00;103331.72;4923425;28;20044;-67
2023/02/08 06:44:24;;;;;;;2.40;0.82;;;;;;;-0.71;84.31;103332.56;4913081;29;20078;-67
2023/02/08 06:46:49;;;;;;;0.52;0.52;;;;;;;-0.73;85.03;103332.78;4925260;29;20050;-67
2023/02/08 06:49:15;;;;;;;0.60;0.60;;;;;;;-0.74;84.98;103327.72;4938869;29;20453;-67
2023/02/08 06:51:40;;;;;;;0.40;0.40;;;;;;;-0.65;84.71;103326.44;4925718;29;20039;-67
2023/02/08 06:54:06;;;;;;;0.43;0.43;;;;;;;-0.57;84.46;103318.25;4963316;28;20087;-67
2023/02/08 06:56:31;;;;;;;1.42;1.05;;;;;;;-0.54;84.24;103331.06;4941104;29;20107;-67
2023/02/08 06:58:57;;;;;;;0.25;0.25;;;;;;;-0.56;84.16;103333.91;4960140;28;20160;-67
2023/02/08 07:01:22;;;;;;;0.30;0.30;;;;;;;-0.52;84.26;103337.75;4926362;29;20405;-67
2023/02/08 07:03:48;;;;;;;0.43;0.43;;;;;;;-0.64;85.09;103339.44;4915586;29;20421;-67
2023/02/08 07:06:15;;;;;;;0.30;0.30;;;;;;;-0.57;84.36;103342.88;4906133;29;20748;-67
2023/02/08 07:08:41;;;;;;;0.40;0.40;;;;;;;-0.69;85.03;103347.22;4928465;28;20039;-67
2023/02/08 07:11:12;;;;;;;0.20;0.20;;;;;;;-0.59;85.21;103347.56;4923218;29;20428;-67
2023/02/08 07:13:38;;;;;;;0.30;0.30;;;;;;;-0.55;84.63;103342.66;4921074;29;20043;-67
2023/02/08 07:16:05;;;;;;;0.35;0.35;;;;;;;-0.55;84.70;103343.47;4931962;28;20047;-67
2023/02/08 07:18:31;;;;;;;0.20;0.20;;;;;;;-0.63;84.85;103337.63;4923709;29;20039;-67
2023/02/08 07:20:57;;;;;;;0.20;0.20;;;;;;;-0.94;85.81;103333.13;4920326;29;20035;-67
2023/02/08 07:23:23;;;;;;;0.30;0.30;;;;;;;-1.00;86.62;103326.03;4952202;28;20039;-67
2023/02/08 07:26:18;;;;;;;0.30;0.30;;;;;;;-0.99;87.16;103325.03;4914344;29;20389;-67
2023/02/08 07:28:43;;;;;;;0.47;0.47;;;;;;;-0.76;86.93;103319.19;4905900;29;20097;-68
2023/02/08 07:31:11;;;;;;;2.35;0.55;;;;;;;-0.81;86.49;103325.09;4947097;29;20032;-67
2023/02/08 07:33:37;;;;;;;0.30;0.30;;;;;;;-0.76;86.52;103333.22;4963184;28;20672;-67
2023/02/08 07:36:04;;;;;;;0.40;0.40;;;;;;;-0.51;85.89;103328.78;4927867;29;20047;-67
2023/02/08 07:38:32;;;;;;;0.20;0.20;;;;;;;-0.51;85.94;103322.69;4930718;29;20035;-67
2023/02/08 07:41:03;;;;;;;0.30;0.30;;;;;;;-0.44;85.69;103313.69;4935636;28;20034;-67
2023/02/08 07:43:29;;;;;;;8.05;1.38;;;;;;;-0.65;86.13;103311.38;4914602;29;20051;-67
2023/02/08 07:45:58;;;;;;;0.40;0.40;;;;;;;-0.39;85.59;103308.56;4932812;28;20155;-67
2023/02/08 07:48:23;;;;;;;0.35;0.35;;;;;;;-0.59;86.58;103318.47;4926416;29;20060;-67
2023/02/08 07:50:49;;;;;;;0.40;0.40;;;;;;;-0.50;86.50;103314.53;4945190;29;20519;-66
2023/02/08 07:53:15;;;;;;;0.32;0.32;;;;;;;-0.33;86.22;103315.63;4946814;29;20035;-66
2023/02/08 07:55:40;;;;;;;0.35;0.35;;;;;;;-0.36;86.27;103318.72;4932275;29;20061;-67
2023/02/08 07:58:06;;;;;;;0.50;0.50;;;;;;;-0.31;85.88;103318.84;4929394;29;20035;-67
2023/02/08 08:00:31;;;;;;;1.02;1.02;;;;;;;-0.16;85.61;103323.84;4946360;29;20050;-67
2023/02/08 08:02:57;;;;;;;0.30;0.30;;;;;;;-0.11;84.99;103308.09;4947305;29;20030;-67
2023/02/08 08:05:22;;;;;;;0.32;0.32;;;;;;;-0.16;85.13;103311.41;4927124;29;20051;-67
2023/02/08 08:07:51;;;;;;;0.40;0.40;;;;;;;-0.03;85.04;103316.59;4934394;28;20103;-66
2023/02/08 08:10:16;;;;;;;0.73;0.73;;;;;;;0.04;84.37;103318.38;4916600;29;20028;-67
2023/02/08 08:12:42;;;;;;;0.30;0.30;;;;;;;-0.04;85.12;103319.47;4937039;29;20063;-67
2023/02/08 08:15:07;;;;;;;0.20;0.20;;;;;;;0.14;85.04;103308.88;4935517;29;20038;-67
2023/02/08 08:17:33;;;;;;;0.28;0.28;;;;;;;0.30;84.23;103310.16;4945536;28;20075;-67
2023/02/08 08:19:58;;;;;;;0.22;0.22;;;;;;;0.27;83.82;103308.75;4932614;28;20078;-67
2023/02/08 08:22:24;;;;;;;0.50;0.50;;;;;;;0.32;83.42;103306.25;4914570;29;20746;-67
2023/02/08 08:24:49;;;;;;;2.60;0.82;;;;;;;0.22;83.52;103305.13;4932305;29;20126;-67
2023/02/08 08:27:15;;;;;;;0.40;0.40;;;;;;;0.35;83.70;103313.75;4933169;28;20111;-67
2023/02/08 08:29:40;;;;;;;1.25;1.15;;;;;;;0.33;82.82;103320.31;4918535;29;20055;-67
2023/02/08 08:32:09;;;;;;;0.43;0.43;;;;;;;0.56;82.88;103308.00;4916741;29;20024;-67
2023/02/08 08:34:34;;;;;;;0.32;0.32;;;;;;;0.75;81.44;103308.81;4919283;29;20104;-67
2023/02/08 08:37:01;;;;;;;1.25;0.50;;;;;;;0.84;80.86;103307.47;4915157;29;20032;-67
2023/02/08 08:39:27;;;;;;;0.40;0.40;;;;;;;1.05;78.91;103298.19;4914722;29;20039;-67
2023/02/08 08:41:56;;;;;;;0.68;0.68;;;;;;;1.48;77.97;103306.75;4916147;29;20079;-68
2023/02/08 08:44:22;;;;;;;0.70;0.70;;;;;;;1.70;76.22;103300.66;4926172;29;20074;-67
2023/02/08 08:46:47;;;;;;;0.35;0.35;;;;;;;1.51;73.75;103303.66;4944747;29;20027;-67
2023/02/08 08:49:13;;;;;;;0.45;0.45;;;;;;;1.81;74.79;103307.84;4958469;28;20064;-67
2023/02/08 08:51:38;;;;;;;0.52;0.52;;;;;;;2.07;73.91;103306.56;4941212;28;20043;-67
2023/02/08 08:54:04;;;;;;;0.40;0.40;;;;;;;2.40;72.03;103305.97;4942519;29;20035;-67
2023/02/08 08:56:31;;;;;;;0.57;0.57;;;;;;;2.42;71.87;103309.19;4946567;29;20117;-68
2023/02/08 08:58:56;;;;;;;0.30;0.30;;;;;;;2.53;70.20;103313.69;4946122;29;20071;-67
2023/02/08 09:01:22;;;;;;;0.85;0.70;;;;;;;2.75;69.26;103301.34;4958901;28;20074;-67
2023/02/08 09:03:48;;;;;;;0.30;0.30;;;;;;;2.82;67.22;103295.88;4929865;29;20135;-68
2023/02/08 09:06:14;;;;;;;0.35;0.35;;;;;;;2.98;64.74;103303.91;4930807;29;20046;-67
2023/02/08 09:08:40;;;;;;;0.50;0.50;;;;;;;2.77;64.24;103291.28;4928152;29;20426;-67
2023/02/08 09:11:08;;;;;;;0.30;0.30;;;;;;;2.94;64.76;103292.16;4929994;29;20042;-67
2023/02/08 09:13:34;;;;;;;0.45;0.45;;;;;;;2.98;65.10;103287.94;4941719;29;20073;-67
2023/02/08 09:16:16;;;;;;;0.28;0.28;;;;;;;2.99;62.48;103294.91;4920215;29;20102;-67
2023/02/08 09:18:42;;;;;;;0.32;0.32;;;;;;;2.90;62.01;103293.69;4951329;28;20031;-67
2023/02/08 09:21:20;;;;;;;0.35;0.35;;;;;;;3.03;60.69;103297.88;4950539;28;20031;-67
2023/02/08 09:23:48;;;;;;;0.30;0.30;;;;;;;2.51;61.69;103289.16;4935473;28;20070;-67
2023/02/08 09:26:16;;;;;;;0.30;0.30;;;;;;;2.78;61.31;103287.59;4938821;29;20059;-67
2023/02/08 09:28:42;;;;;;;0.30;0.30;;;;;;;3.03;61.48;103288.06;4927969;29;20405;-67
2023/02/08 09:31:17;;;;;;;0.98;0.98;;;;;;;3.03;61.34;103295.22;4930955;29;20146;-67
2023/02/08 09:33:42;;;;;;;0.43;0.43;;;;;;;2.75;59.70;103291.53;4930886;29;20130;-67
2023/02/08 09:36:08;;;;;;;0.30;0.30;;;;;;;3.07;59.77;103285.72;4930960;29;20103;-67
2023/02/08 09:38:35;;;;;;;1.55;0.60;;;;;;;3.12;59.88;103285.78;4944367;29;20031;-67
2023/02/08 09:41:38;;;;;;;0.43;0.43;;;;;;;3.22;58.90;103283.31;4933318;29;20067;-67
2023/02/08 09:44:15;;;;;;;1.27;1.27;;;;;;;3.40;58.28;103281.25;4958098;28;20027;-67
2023/02/08 09:46:49;;;;;;;0.40;0.40;;;;;;;3.42;57.91;103279.16;4935115;29;20044;-67
2023/02/08 09:49:22;;;;;;;0.93;0.93;;;;;;;3.83;57.67;103296.59;4957890;28;20089;-69
2023/02/08 09:51:56;;;;;;;0.35;0.35;;;;;;;3.92;56.71;103291.63;4933058;29;20110;-69
2023/02/08 09:54:33;;;;;;;0.32;0.32;;;;;;;4.20;56.30;103286.19;4948850;29;20075;-68
2023/02/08 09:57:02;;;;;;;0.30;0.30;;;;;;;4.07;56.19;103294.50;4935181;29;20030;-69
2023/02/08 09:59:31;;;;;;;0.85;0.85;;;;;;;4.07;56.74;103295.31;4933044;29;20031;-69
2023/02/08 10:02:21;;;;;;;0.50;0.50;;;;;;;3.72;56.40;103286.81;4933888;29;20023;-69
2023/02/08 10:05:00;;;;;;;0.60;0.60;;;;;;;3.92;56.13;103296.97;4947936;29;20024;-69
2023/02/08 10:07:27;;;;;;;0.35;0.35;;;;;;;4.12;55.35;103292.72;4933392;29;20090;-69
2023/02/08 10:10:02;;;;;;;0.52;0.52;;;;;;;3.91;55.28;103304.16;4948636;29;20074;-69
2023/02/08 10:12:33;;;;;;;0.40;0.40;;;;;;;3.51;55.54;103304.34;4926067;29;20053;-69
2023/02/08 10:15:06;;;;;;;0.30;0.30;;;;;;;3.78;55.78;103303.66;4947412;29;20032;-69
2023/02/08 10:17:38;;;;;;;0.60;0.60;;;;;;;4.05;56.01;103293.94;4933357;29;20035;-69
2023/02/08 10:20:44;;;;;;;0.50;0.50;;;;;;;4.11;55.25;103292.97;4933612;29;20488;-69
2023/02/08 10:23:57;;;;;;;0.88;0.88;;;;;;;4.33;56.13;103289.28;4929334;29;20039;-69
2023/02/08 10:26:38;;;;;;;0.30;0.30;;;;;;;4.48;54.83;103297.47;4919608;29;20424;-66
2023/02/08 10:29:23;;;;;;;0.83;0.73;;;;;;;4.71;54.61;103292.94;4948933;28;20518;-68
2023/02/08 10:32:19;;;;;;;0.40;0.40;;;;;;;4.93;52.97;103299.88;4937972;28;20374;-69
2023/02/08 10:34:49;;;;;;;0.52;0.52;;;;;;;4.96;51.94;103303.88;4930894;28;20197;-68
2023/02/08 10:37:26;;;;;;;0.33;0.33;;;;;;;4.99;52.99;103300.72;4951902;28;20032;-69
2023/02/08 10:39:52;;;;;;;0.30;0.30;;;;;;;5.11;52.53;103298.72;4927916;29;20038;-69
2023/02/08 10:42:21;;;;;;;0.70;0.70;;;;;;;5.10;51.94;103300.56;4930475;29;20487;-68
2023/02/08 10:45:03;;;;;;;0.30;0.30;;;;;;;5.11;51.43;103301.38;4927265;29;20477;-69
2023/02/08 10:47:45;;;;;;;0.28;0.28;;;;;;;5.40;50.01;103303.53;4935012;29;20051;-68
2023/02/08 10:50:37;;;;;;;0.85;0.85;;;;;;;5.20;50.70;103302.53;4931824;29;20560;-68
2023/02/08 10:53:04;;;;;;;0.40;0.40;;;;;;;4.96;50.83;103311.91;4917179;29;20316;-68
2023/02/08 10:55:33;;;;;;;0.75;0.75;;;;;;;5.13;51.04;103310.75;4933603;28;20036;-69
2023/02/08 10:58:03;;;;;;;0.40;0.40;;;;;;;4.99;51.75;103303.41;4915812;29;20408;-69
2023/02/08 11:00:38;;;;;;;0.75;0.75;;;;;;;4.99;50.75;103303.41;4919443;29;20035;-68
2023/02/08 11:03:26;;;;;;;1.45;0.82;;;;;;;4.96;50.21;103299.34;4918586;29;20047;-68
2023/02/08 11:05:52;;;;;;;0.95;0.90;;;;;;;5.09;49.83;103298.16;4923166;29;20083;-67
2023/02/08 11:08:23;;;;;;;0.95;0.95;;;;;;;5.19;50.13;103290.22;4920175;29;20119;-68
2023/02/08 11:11:28;;;;;;;0.32;0.32;;;;;;;5.32;50.72;103293.28;4945809;28;20122;-69
2023/02/08 11:14:06;;;;;;;0.52;0.52;;;;;;;5.28;50.59;103286.06;4946978;28;20047;-68
2023/02/08 11:16:31;;;;;;;0.38;0.38;;;;;;;5.40;50.58;103279.47;4949982;28;20047;-69
2023/02/08 11:19:01;;;;;;;0.65;0.65;;;;;;;5.27;50.45;103285.25;4951621;28;20546;-68
2023/02/08 11:21:33;;;;;;;0.40;0.40;;;;;;;5.14;50.58;103285.66;4940967;28;20534;-68
2023/02/08 11:24:26;;;;;;;0.60;0.60;;;;;;;5.33;50.41;103276.22;4931935;28;20040;-68
2023/02/08 11:26:52;;;;;;;2.08;0.95;;;;;;;5.29;49.89;103284.97;4926515;28;21417;-68
2023/02/08 11:29:26;;;;;;;0.30;0.30;;;;;;;5.26;50.43;103277.50;4949407;28;20034;-68
2023/02/08 11:31:58;;;;;;;0.38;0.38;;;;;;;5.39;49.59;103272.53;4930103;28;20057;-69
2023/02/08 11:34:29;;;;;;;0.30;0.30;;;;;;;5.22;50.66;103277.19;4918044;29;20051;-68
2023/02/08 11:36:56;;;;;;;0.60;0.60;;;;;;;5.37;50.09;103261.28;4944752;28;20041;-68
2023/02/08 11:39:28;;;;;;;0.35;0.35;;;;;;;4.92;50.18;103268.88;4944368;28;20099;-68
2023/02/08 11:41:57;;;;;;;0.45;0.43;;;;;;;4.96;50.57;103266.50;4945391;28;20043;-69
2023/02/08 11:44:40;;;;;;;0.80;0.80;;;;;;;5.05;50.46;103265.78;4953819;28;20063;-69
2023/02/08 11:47:09;;;;;;;1.35;1.17;;;;;;;4.95;50.69;103264.91;4938256;28;20440;-69